createdAt,value
2023-07-20T00:01:49.506Z,12.8
2023-07-20T00:07:38.872Z,12.8
2023-07-20T00:12:38.868Z,12.7
2023-07-20T00:17:49.170Z,12.9
2023-07-20T00:23:39.058Z,12.8
2023-07-20T00:28:49.196Z,12.8
2023-07-20T00:33:49.404Z,12.9
2023-07-20T00:38:49.185Z,13
2023-07-20T00:43:49.184Z,12.9
2023-07-20T00:49:38.931Z,13
2023-07-20T00:54:39.374Z,12.9
2023-07-20T00:59:49.160Z,13
2023-07-20T01:05:38.892Z,12.9
2023-07-20T01:10:38.959Z,13.1
2023-07-20T01:15:39.112Z,13.1
2023-07-20T01:20:49.236Z,13
2023-07-20T01:25:49.360Z,13.2
2023-07-20T01:30:49.389Z,13.1
2023-07-20T01:36:39.103Z,13.3
2023-07-20T01:41:39.139Z,13.3
2023-07-20T01:46:49.312Z,13.2
2023-07-20T01:51:49.385Z,13.3
2023-07-20T01:57:39.121Z,13.3
2023-07-20T02:02:49.404Z,13.2
2023-07-20T02:07:49.390Z,13.3
2023-07-20T02:13:39.086Z,13.3
2023-07-20T02:18:39.125Z,13.3
2023-07-20T02:23:49.409Z,13.3
2023-07-20T02:29:39.122Z,13.3
2023-07-20T02:34:49.402Z,13.3
2023-07-20T02:39:49.416Z,13.4
2023-07-20T02:45:39.107Z,13.4
2023-07-20T02:50:39.127Z,13.5
2023-07-20T02:55:39.152Z,13.5
2023-07-20T03:00:49.442Z,13.6
2023-07-20T03:05:49.439Z,13.7
2023-07-20T03:11:39.129Z,13.6
2023-07-20T03:16:49.419Z,13.6
2023-07-20T03:21:49.388Z,13.7
2023-07-20T03:26:49.423Z,13.7
2023-07-20T03:32:38.953Z,13.8
2023-07-20T03:37:49.468Z,13.8
2023-07-20T03:43:38.940Z,13.8
2023-07-20T03:48:39.198Z,13.8
2023-07-20T03:53:49.431Z,13.9
2023-07-20T03:58:59.528Z,13.9
2023-07-20T04:04:39.118Z,14
2023-07-20T04:09:39.124Z,13.9
2023-07-20T04:14:39.155Z,13.9
2023-07-20T04:19:49.249Z,13.9
2023-07-20T04:24:49.418Z,14
2023-07-20T04:30:39.152Z,13.9
2023-07-20T04:35:45.251Z,14
2023-07-20T04:40:49.432Z,13.9
2023-07-20T04:46:39.242Z,14
2023-07-20T04:51:39.428Z,14
2023-07-20T04:56:51.573Z,13.9
2023-07-20T05:01:49.424Z,14
2023-07-20T05:07:39.152Z,14
2023-07-20T05:12:49.415Z,14
2023-07-20T05:17:49.501Z,14
2023-07-20T05:23:39.239Z,14
2023-07-20T05:28:49.428Z,14.1
2023-07-20T05:34:39.145Z,14
2023-07-20T05:39:49.464Z,14
2023-07-20T05:45:38.921Z,14
2023-07-20T05:50:39.166Z,13.9
2023-07-20T05:55:49.439Z,14.1
2023-07-20T06:01:39.239Z,14.4
2023-07-20T06:06:39.281Z,13.9
2023-07-20T06:11:49.693Z,14.1
2023-07-20T06:17:40.628Z,14.1
2023-07-20T06:22:49.616Z,14
2023-07-20T06:28:38.967Z,14
2023-07-20T06:33:49.290Z,14
2023-07-20T06:44:39.006Z,14.1
2023-07-20T06:49:49.254Z,14
2023-07-20T07:00:38.991Z,13.8
2023-07-20T07:05:39.217Z,13.8
2023-07-20T07:10:39.033Z,13.8
2023-07-20T07:15:49.303Z,13.4
2023-07-20T07:21:39.143Z,13.7
2023-07-20T07:26:39.812Z,13.7
2023-07-20T07:31:49.362Z,13.9
2023-07-20T07:36:49.441Z,13.7
2023-07-20T07:41:49.481Z,13.5
2023-07-20T07:46:49.516Z,13.7
2023-07-20T07:52:38.946Z,13.6
2023-07-20T07:57:39.048Z,13.4
2023-07-20T08:02:39.288Z,13.2
2023-07-20T08:07:49.494Z,13.2
2023-07-20T08:13:39.188Z,13.5
2023-07-20T08:18:49.632Z,13.4
2023-07-20T08:24:39.297Z,13.2
2023-07-20T08:29:49.479Z,13.5
2023-07-20T08:35:39.217Z,13.4
2023-07-20T08:40:39.210Z,12.3
2023-07-20T08:45:49.307Z,12.7
2023-07-20T08:50:49.492Z,12.5
2023-07-20T08:55:49.492Z,12.6
2023-07-20T09:00:49.526Z,12.4
2023-07-20T09:06:39.051Z,12.5
2023-07-20T09:11:39.216Z,12.8
2023-07-20T09:16:49.408Z,12.8
2023-07-20T09:22:39.238Z,12.8
2023-07-20T09:27:39.391Z,13
2023-07-20T09:37:49.589Z,12.7
2023-07-20T09:43:39.375Z,12.9
2023-07-20T09:53:49.514Z,12.7
2023-07-20T09:58:49.580Z,12.5
2023-07-20T10:04:39.229Z,12.8
2023-07-20T10:14:49.513Z,11.8
2023-07-20T10:20:39.823Z,11.8
2023-07-20T10:25:49.356Z,12.2
2023-07-20T10:30:49.494Z,12.2
2023-07-20T10:35:49.606Z,12.3
2023-07-20T10:41:39.232Z,12.1
2023-07-20T10:46:49.594Z,11.6
2023-07-20T10:51:49.601Z,11.7
2023-07-20T10:56:49.723Z,11.7
2023-07-20T11:02:39.187Z,11.5
2023-07-20T11:07:39.374Z,11.8
2023-07-20T11:12:49.542Z,12
2023-07-20T11:17:49.626Z,12.2
2023-07-20T11:22:49.572Z,12.4
2023-07-20T11:27:49.630Z,11.7
2023-07-20T11:33:39.272Z,10.8
2023-07-20T11:38:40.593Z,10.9
2023-07-20T11:43:39.334Z,11.2
2023-07-20T11:48:49.511Z,11.3
2023-07-20T11:54:39.113Z,11.1
2023-07-20T11:59:39.332Z,11.5
2023-07-20T12:04:49.347Z,11.6
2023-07-20T12:09:51.731Z,11.3
2023-07-20T12:14:49.589Z,11.6
2023-07-20T12:25:39.126Z,11.1
2023-07-20T12:30:49.359Z,11.5
2023-07-20T12:35:49.350Z,11.2
2023-07-20T12:40:49.371Z,11.4
2023-07-20T12:45:49.434Z,11.7
2023-07-20T12:51:39.073Z,11.4
2023-07-20T13:01:49.525Z,11.5
2023-07-20T13:12:49.392Z,11.6
2023-07-20T13:18:39.167Z,11
2023-07-20T13:23:39.226Z,10.8
2023-07-20T13:28:49.442Z,11
2023-07-20T13:38:49.435Z,10.9
2023-07-20T13:43:49.752Z,10.7
2023-07-20T13:49:47.507Z,10.5
2023-07-20T13:54:51.677Z,10.6
2023-07-20T13:59:49.806Z,10.6
2023-07-20T14:15:39.481Z,10.8
2023-07-20T14:20:49.626Z,11
2023-07-20T14:25:49.651Z,10.8
2023-07-20T14:31:39.321Z,10.7
2023-07-20T14:36:39.401Z,10.2
2023-07-20T14:41:49.642Z,10.5
2023-07-20T14:47:39.484Z,9.6
2023-07-20T14:52:49.897Z,10
2023-07-20T14:57:49.638Z,9.9
2023-07-20T15:03:39.378Z,9.9
2023-07-20T15:08:39.354Z,9.7
2023-07-20T15:13:49.756Z,9.5
2023-07-20T15:18:50.008Z,9.5
2023-07-20T15:24:39.438Z,9.7
2023-07-20T15:29:49.657Z,10.1
2023-07-20T15:35:39.351Z,10.3
2023-07-20T15:40:49.466Z,10.1
2023-07-20T15:45:49.794Z,10.4
2023-07-20T15:50:49.880Z,10.1
2023-07-20T16:01:49.655Z,9.4
2023-07-20T16:06:49.671Z,9.2
2023-07-20T16:11:50.103Z,9.4
2023-07-20T16:17:39.192Z,9.9
2023-07-20T16:22:39.202Z,9.4
2023-07-20T16:27:49.654Z,9.8
2023-07-20T16:33:45.743Z,9.6
2023-07-20T16:38:49.667Z,9
2023-07-20T16:49:49.681Z,9
2023-07-20T16:55:39.408Z,9.4
2023-07-20T17:00:49.700Z,9.4
2023-07-20T17:06:39.465Z,10.1
2023-07-20T17:11:49.684Z,10.6
2023-07-20T17:17:39.418Z,11.1
2023-07-20T17:22:39.412Z,10.9
2023-07-20T17:43:39.447Z,11.5
2023-07-20T17:48:39.781Z,11.3
2023-07-20T17:53:49.506Z,11.5
2023-07-20T17:58:59.821Z,11
2023-07-20T18:04:39.426Z,10.9
2023-07-20T18:09:39.422Z,10.5
2023-07-20T18:20:39.203Z,10.5
2023-07-20T18:25:39.517Z,10.4
2023-07-20T18:30:49.766Z,10.2
2023-07-20T18:36:39.222Z,10.3
2023-07-20T18:41:39.248Z,10.3
2023-07-20T18:46:49.789Z,10.3
2023-07-20T18:52:39.299Z,10.4
2023-07-20T18:57:49.475Z,10.4
2023-07-20T19:02:49.601Z,10.4
2023-07-20T19:08:39.226Z,10.4
2023-07-20T19:13:39.241Z,10.6
2023-07-20T19:18:49.921Z,10.8
2023-07-20T19:24:39.270Z,10.8
2023-07-20T19:29:39.267Z,10.9
2023-07-20T19:34:39.279Z,10.8
2023-07-20T19:39:49.558Z,10.7
2023-07-20T19:45:39.161Z,10.9
2023-07-20T19:50:39.399Z,11.2
2023-07-20T19:55:39.936Z,11.6
2023-07-20T20:05:49.742Z,11.6
2023-07-20T20:11:39.468Z,11.6
2023-07-20T20:16:49.794Z,11.1
2023-07-20T20:21:59.003Z,11.1
2023-07-20T20:27:39.457Z,11.5
2023-07-20T20:37:49.753Z,11.3
2023-07-20T20:43:39.232Z,11.5
2023-07-20T20:48:39.266Z,11.7
2023-07-20T20:53:39.491Z,11.9
2023-07-20T20:58:49.767Z,11.5
2023-07-20T21:04:39.529Z,10.9
2023-07-20T21:09:49.740Z,10.8
2023-07-20T21:14:49.732Z,11
2023-07-20T21:19:49.732Z,11.1
2023-07-20T21:24:49.779Z,11.9
2023-07-20T21:30:39.510Z,12
2023-07-20T21:35:49.760Z,12.1
2023-07-20T21:41:39.351Z,12
2023-07-20T21:46:39.503Z,11.5
2023-07-20T21:51:39.481Z,10.4
2023-07-20T22:12:49.611Z,11.9
2023-07-20T22:17:54.281Z,12
2023-07-20T22:23:39.331Z,12.1
2023-07-20T22:28:39.501Z,12.2
2023-07-20T22:33:49.618Z,12.2
2023-07-20T22:38:49.782Z,12.3
2023-07-20T22:43:49.785Z,12.4
2023-07-20T22:48:49.838Z,12.5
2023-07-20T22:54:39.487Z,12.4
2023-07-20T22:59:49.786Z,12.4
2023-07-20T23:04:49.942Z,12.5
2023-07-20T23:10:39.516Z,12.4
2023-07-20T23:15:39.564Z,12.4
2023-07-20T23:20:49.599Z,12.3
2023-07-20T23:25:49.834Z,12.3
2023-07-20T23:31:39.553Z,12.4
2023-07-20T23:36:49.583Z,12.4
2023-07-20T23:41:49.753Z,12.4
2023-07-20T23:46:49.804Z,12.4
2023-07-20T23:52:39.486Z,12.3
2023-07-20T23:57:39.605Z,12.2
